Flight Track Log - Related Links

Times and Time Zones

All times are in EDT time to prevent confusion due to time zone crossing. See the ADR704 flight status page for this flight to view local times or setup timezone preferences in your user account.

Time Position Orientation Groundspeed Altitude Reporting Facility
EDT Latitude Longitude Course Direction KTS MPH feet Rate Location/Type
Wed 08:51:00 AM 45.7966 14.9730 140° Southeast  Level Estimated
Wed 08:52:00 AM 45.7251 15.0581 140° Southeast  Level Estimated
Wed 08:53:00 AM 45.6537 15.1430 140° Southeast  Level Estimated
Wed 08:54:00 AM 45.5821 15.2277 140° Southeast  Level Estimated
Wed 08:55:00 AM 45.5105 15.3122 140° Southeast  Level Estimated
Wed 08:56:00 AM 45.4389 15.3964 140° Southeast  Level Estimated
Wed 08:57:00 AM 45.3671 15.4805 141° Southeast  Level Estimated
Wed 08:58:00 AM 45.2953 15.5643 141° Southeast  Level Estimated
Wed 08:59:00 AM 45.2235 15.6479 141° Southeast  Level Estimated
Wed 09:00:00 AM 45.1516 15.7313 141° Southeast  Level Estimated
Wed 09:01:00 AM 45.0796 15.8145 141° Southeast  Level Estimated
Wed 09:02:00 AM 45.0076 15.8975 141° Southeast  Level Estimated
Wed 09:03:00 AM 44.9355 15.9803 141° Southeast  Level Estimated
Wed 09:04:00 AM 44.8633 16.0629 141° Southeast  Level Estimated
Wed 09:05:00 AM 44.7911 16.1452 141° Southeast  Level Estimated
Wed 09:06:00 AM 44.7189 16.2274 141° Southeast  Level Estimated
Wed 09:07:00 AM 44.6465 16.3094 141° Southeast  Level Estimated
Wed 09:08:00 AM 44.5742 16.3911 141° Southeast  Level Estimated
Wed 09:09:00 AM 44.5017 16.4727 141° Southeast  Level Estimated
Wed 09:10:00 AM 44.4292 16.5540 141° Southeast  Level Estimated
Wed 09:11:00 AM 44.3567 16.6352 141° Southeast  Level Estimated
Wed 09:12:00 AM 44.2840 16.7161 141° Southeast  Level Estimated
Wed 09:13:00 AM 44.2114 16.7968 141° Southeast  Level Estimated
Wed 09:14:00 AM 44.1386 16.8774 142° Southeast  Level Estimated
Wed 09:15:00 AM 44.0658 16.9577 142° Southeast  Level Estimated
Wed 09:16:00 AM 43.9930 17.0379 142° Southeast  Level Estimated
Wed 09:17:00 AM 43.9201 17.1178 142° Southeast  Level Estimated
Wed 09:18:00 AM 43.8472 17.1976 142° Southeast  Level Estimated
Wed 09:19:00 AM 43.7742 17.2771 142° Southeast  Level Estimated
Wed 09:20:00 AM 43.7011 17.3565 142° Southeast  Level Estimated
Wed 09:21:00 AM 43.6280 17.4357 142° Southeast  Level Estimated
Wed 09:22:00 AM 43.5548 17.5147 142° Southeast  Level Estimated
Wed 09:23:00 AM 43.4816 17.5935 142° Southeast  Level Estimated
Wed 09:24:00 AM 43.4083 17.6721 142° Southeast  Level Estimated
Wed 09:25:00 AM 43.3350 17.7505 142° Southeast  Level Estimated
Wed 09:26:00 AM 43.2616 17.8287 142° Southeast  Level Estimated
Wed 09:27:00 AM 43.1881 17.9067 142° Southeast  Level Estimated
Wed 09:28:00 AM 43.1146 17.9846 142° Southeast  Level Estimated
Wed 09:29:00 AM 43.0411 18.0622 142° Southeast  Level Estimated
Wed 09:30:00 AM 42.9675 18.1397 142° Southeast  Level Estimated
Wed 09:31:00 AM 42.8938 18.2170 142° Southeast  Level Estimated
Wed 09:32:00 AM 42.8201 18.2941 142° Southeast  Level Estimated
Wed 09:33:00 AM 42.7464 18.3710 143° Southeast  Level Estimated
Wed 09:34:00 AM 42.6726 18.4477 143° Southeast  Level Estimated
Wed 09:35:00 AM 42.5987 18.5243 143° Southeast  Level Estimated
Wed 09:36:00 AM 42.5248 18.6006 143° Southeast  Level Estimated
Wed 09:37:00 AM 42.4509 18.6768 143° Southeast  Level Estimated
Wed 09:38:00 AM 42.3768 18.7528 143° Southeast  Level Estimated
Wed 09:39:00 AM 42.3028 18.8287 143° Southeast  Level Estimated
Wed 09:40:00 AM 42.2287 18.9043 143° Southeast  Level Estimated
Wed 09:41:00 AM 42.1545 18.9798 143° Southeast  Level Estimated
Wed 09:42:00 AM 42.0803 19.0551 143° Southeast  Level Estimated
Wed 09:43:00 AM 42.0060 19.1302 143° Southeast  Level Estimated
Wed 09:44:00 AM 41.9317 19.2052 143° Southeast  Level Estimated
Wed 09:45:00 AM 41.8574 19.2800 143° Southeast  Level Estimated
Wed 09:46:00 AM 41.7830 19.3546 143° Southeast  Level Estimated
Wed 09:47:00 AM 41.7085 19.4290 143° Southeast  Level Estimated
Wed 09:48:00 AM 41.6340 19.5033 143° Southeast  Level Estimated
Wed 09:49:00 AM 41.5595 19.5773 143° Southeast  Level Estimated
Wed 09:50:00 AM 41.4849 19.6512 143° Southeast  Level Estimated
Wed 09:51:00 AM 41.4147 19.7206 143° Southeast  Level Estimated
Wed 09:52:00 AM 41.4147 19.7206 21° North  Level Estimated

Login

Don't have an account? Register now (free) for customized features, flight alerts, and more!